createdAt,value
2022-12-11T00:00:30.671Z,98300.91
2022-12-11T00:02:58.417Z,98322.56
2022-12-11T00:05:25.916Z,98325.84
2022-12-11T00:07:53.463Z,98332.97
2022-12-11T00:10:21.323Z,98326.28
2022-12-11T00:12:48.943Z,98327.09
2022-12-11T00:15:16.420Z,98330.22
2022-12-11T00:17:44.267Z,98323.91
2022-12-11T00:20:11.911Z,98314.75
2022-12-11T00:22:39.692Z,98307.09
2022-12-11T00:25:08.251Z,98307.94
2022-12-11T00:27:35.861Z,98311.00
2022-12-11T00:30:04.370Z,98315.44
2022-12-11T00:32:37.336Z,98308.72
2022-12-11T00:35:05.498Z,98300.59
2022-12-11T00:37:33.335Z,98296.03
2022-12-11T00:40:00.804Z,98310.53
2022-12-11T00:42:28.266Z,98305.81
2022-12-11T00:44:56.505Z,98301.59
2022-12-11T00:47:23.945Z,98312.81
2022-12-11T00:49:51.554Z,98330.72
2022-12-11T00:52:19.255Z,98312.50
2022-12-11T00:54:46.698Z,98322.91
2022-12-11T00:57:14.151Z,98318.38
2022-12-11T00:59:42.048Z,98325.72
2022-12-11T01:02:09.529Z,98341.22
2022-12-11T01:04:37.390Z,98333.09
2022-12-11T01:07:05.309Z,98332.94
2022-12-11T01:09:51.444Z,98330.50
2022-12-11T01:12:19.091Z,98324.28
2022-12-11T01:14:46.597Z,98335.41
2022-12-11T01:17:14.025Z,98333.09
2022-12-11T01:19:41.778Z,98349.06
2022-12-11T01:22:09.152Z,98351.00
2022-12-11T01:24:36.584Z,98370.50
2022-12-11T01:27:04.815Z,98369.91
2022-12-11T01:29:32.602Z,98367.00
2022-12-11T01:32:00.088Z,98364.69
2022-12-11T01:34:33.213Z,98360.75
2022-12-11T01:37:00.595Z,98365.66
2022-12-11T01:39:28.790Z,98372.94
2022-12-11T01:42:01.360Z,98368.59
2022-12-11T01:44:28.928Z,98375.38
2022-12-11T01:46:56.331Z,98381.53
2022-12-11T01:49:27.132Z,98369.66
2022-12-11T01:51:57.817Z,98376.84
2022-12-11T01:54:27.678Z,98389.03
2022-12-11T01:57:01.216Z,98382.50
2022-12-11T01:59:34.073Z,98390.53
2022-12-11T02:02:22.555Z,98394.91
2022-12-11T02:04:50.344Z,98399.28
2022-12-11T02:07:17.780Z,98399.16
2022-12-11T02:09:47.581Z,98399.97
2022-12-11T02:12:21.508Z,98398.63
2022-12-11T02:15:26.672Z,98399.03
2022-12-11T02:18:33.474Z,98400.84
2022-12-11T02:21:12.950Z,98401.66
2022-12-11T02:24:13.003Z,98406.84
2022-12-11T02:27:03.368Z,98403.03
2022-12-11T02:29:38.392Z,98397.38
2022-12-11T02:32:46.031Z,98396.94
2022-12-11T02:35:17.816Z,98397.72
2022-12-11T02:37:48.482Z,98406.88
2022-12-11T02:40:22.025Z,98402.34
2022-12-11T02:42:51.051Z,98421.53
2022-12-11T02:45:20.647Z,98406.44
2022-12-11T02:47:49.663Z,98408.53
2022-12-11T02:50:21.290Z,98401.37
2022-12-11T02:52:53.347Z,98399.06
2022-12-11T02:55:20.959Z,98407.94
2022-12-11T02:58:00.041Z,98419.06
2022-12-11T03:00:28.176Z,98409.91
2022-12-11T03:02:57.177Z,98408.56
2022-12-11T03:05:24.668Z,98411.47
2022-12-11T03:07:52.133Z,98400.37
2022-12-11T03:10:20.164Z,98404.25
2022-12-11T03:12:55.589Z,98402.63
2022-12-11T03:15:33.967Z,98413.97
2022-12-11T03:18:32.095Z,98415.63
2022-12-11T03:21:13.900Z,98429.06
2022-12-11T03:23:48.233Z,98427.41
2022-12-11T03:26:18.423Z,98432.91
2022-12-11T03:28:51.512Z,98436.66
2022-12-11T03:31:43.396Z,98454.19
2022-12-11T03:34:19.735Z,98471.88
2022-12-11T03:36:49.970Z,98470.38
2022-12-11T03:39:25.832Z,98485.94
2022-12-11T03:41:55.577Z,98505.09
2022-12-11T03:44:24.745Z,98521.22
2022-12-11T03:46:55.012Z,98535.19
2022-12-11T03:49:34.126Z,98521.25
2022-12-11T03:52:03.269Z,98555.97
2022-12-11T03:54:31.880Z,98566.66
2022-12-11T03:57:02.101Z,98577.31
2022-12-11T03:59:29.639Z,98579.41
2022-12-11T04:01:57.614Z,98586.62
2022-12-11T04:04:25.751Z,98569.69
2022-12-11T04:06:53.223Z,98567.09
2022-12-11T04:09:20.664Z,98582.25
2022-12-11T04:11:48.316Z,98583.50
2022-12-11T04:14:34.384Z,98598.00
2022-12-11T04:17:02.156Z,98598.13
2022-12-11T04:19:48.051Z,98626.69
2022-12-11T04:22:36.741Z,98612.06
2022-12-11T04:25:08.047Z,98611.34
2022-12-11T04:27:51.000Z,98606.31
2022-12-11T04:30:22.580Z,98603.44
2022-12-11T04:32:51.831Z,98609.56
2022-12-11T04:35:19.664Z,98619.13
2022-12-11T04:37:47.409Z,98625.69
2022-12-11T04:40:17.860Z,98607.94
2022-12-11T04:42:45.744Z,98620.09
2022-12-11T04:45:13.808Z,98626.25
2022-12-11T04:47:42.139Z,98624.62
2022-12-11T04:50:11.825Z,98618.84
2022-12-11T04:52:39.323Z,98613.78
2022-12-11T04:55:08.505Z,98614.44
2022-12-11T04:57:36.360Z,98615.94
2022-12-11T05:00:09.529Z,98608.25
2022-12-11T05:02:38.236Z,98636.28
2022-12-11T05:05:06.676Z,98636.53
2022-12-11T05:07:34.083Z,98642.09
2022-12-11T05:10:01.849Z,98652.00
2022-12-11T05:12:29.717Z,98632.84
2022-12-11T05:14:57.140Z,98653.47
2022-12-11T05:17:24.818Z,98660.41
2022-12-11T05:19:52.316Z,98664.50
2022-12-11T05:22:19.844Z,98667.19
2022-12-11T05:24:47.546Z,98672.28
2022-12-11T05:27:15.024Z,98681.97
2022-12-11T05:29:42.673Z,98687.84
2022-12-11T05:32:10.491Z,98697.22
2022-12-11T05:34:38.148Z,98706.41
2022-12-11T05:37:06.146Z,98711.19
2022-12-11T05:39:34.018Z,98708.03
2022-12-11T05:42:01.484Z,98712.56
2022-12-11T05:44:28.856Z,98719.13
2022-12-11T05:46:56.675Z,98732.84
2022-12-11T05:49:30.506Z,98743.66
2022-12-11T05:51:58.733Z,98742.66
2022-12-11T05:54:26.116Z,98745.25
2022-12-11T05:56:53.489Z,98746.94
2022-12-11T05:59:21.584Z,98757.78
2022-12-11T06:01:49.107Z,98760.13
2022-12-11T06:04:16.999Z,98772.69
2022-12-11T06:06:44.437Z,98759.16
2022-12-11T06:09:14.560Z,98789.91
2022-12-11T06:11:42.776Z,98804.25
2022-12-11T06:14:11.480Z,98789.75
2022-12-11T06:16:38.995Z,98807.47
2022-12-11T06:19:07.269Z,98809.44
2022-12-11T06:21:34.878Z,98814.69
2022-12-11T06:24:04.009Z,98818.66
2022-12-11T06:26:32.188Z,98827.41
2022-12-11T06:28:59.974Z,98832.16
2022-12-11T06:31:27.522Z,98836.97
2022-12-11T06:33:55.812Z,98845.31
2022-12-11T06:36:24.625Z,98855.75
2022-12-11T06:38:53.178Z,98858.66
2022-12-11T06:41:21.215Z,98851.25
2022-12-11T06:43:48.771Z,98861.38
2022-12-11T06:46:18.948Z,98861.25
2022-12-11T06:48:48.549Z,98857.03
2022-12-11T06:51:21.747Z,98857.87
2022-12-11T06:53:54.261Z,98871.75
2022-12-11T06:56:23.258Z,98877.62
2022-12-11T06:58:52.055Z,98883.66
2022-12-11T07:01:22.763Z,98879.78
2022-12-11T07:03:53.486Z,98880.69
2022-12-11T07:06:21.896Z,98887.97
2022-12-11T07:08:49.454Z,98880.22
2022-12-11T07:11:18.555Z,98873.72
2022-12-11T07:13:46.727Z,98871.75
2022-12-11T07:16:16.117Z,98883.84
2022-12-11T07:18:48.130Z,98885.75
2022-12-11T07:21:16.559Z,98886.19
2022-12-11T07:23:44.094Z,98888.72
2022-12-11T07:26:14.768Z,98908.41
2022-12-11T07:28:42.667Z,98919.22
2022-12-11T07:31:16.459Z,98934.66
2022-12-11T07:33:44.246Z,98936.81
2022-12-11T07:36:13.455Z,98947.63
2022-12-11T07:38:41.061Z,98956.84
2022-12-11T07:41:13.061Z,98961.34
2022-12-11T07:43:41.215Z,98979.34
2022-12-11T07:46:13.501Z,98985.63
2022-12-11T07:48:42.581Z,98990.88
2022-12-11T07:51:17.803Z,98989.72
2022-12-11T07:53:47.677Z,98994.28
2022-12-11T07:56:17.072Z,98989.34
2022-12-11T07:58:45.340Z,98996.94
2022-12-11T08:01:18.492Z,99003.41
2022-12-11T08:03:46.822Z,99006.59
2022-12-11T08:06:14.779Z,99004.91
2022-12-11T08:08:42.782Z,99008.31
2022-12-11T08:11:14.287Z,99016.91
2022-12-11T08:13:43.080Z,99011.78
2022-12-11T08:16:13.662Z,99015.25
2022-12-11T08:18:42.860Z,99018.28
2022-12-11T08:21:16.245Z,99020.38
2022-12-11T08:23:44.633Z,99022.59
2022-12-11T08:26:18.869Z,99031.34
2022-12-11T08:28:46.784Z,99040.19
2022-12-11T08:31:15.668Z,99045.38
2022-12-11T08:33:44.426Z,99060.34
2022-12-11T08:36:15.147Z,99072.59
2022-12-11T08:38:43.528Z,99074.59
2022-12-11T08:41:19.480Z,99079.56
2022-12-11T08:43:48.211Z,99082.50
2022-12-11T08:46:16.219Z,99080.50
2022-12-11T08:48:44.176Z,99082.88
2022-12-11T08:51:14.222Z,99063.78
2022-12-11T08:53:42.400Z,99087.34
2022-12-11T08:56:12.508Z,99082.22
2022-12-11T08:58:40.619Z,99078.00
2022-12-11T09:01:21.724Z,99083.62
2022-12-11T09:03:50.819Z,99090.00
2022-12-11T09:06:21.243Z,99081.06
2022-12-11T09:08:52.583Z,99082.22
2022-12-11T09:11:23.706Z,99089.72
2022-12-11T09:13:51.865Z,99098.06
2022-12-11T09:16:21.884Z,99095.47
2022-12-11T09:18:51.402Z,99106.78
2022-12-11T09:21:22.314Z,99098.94
2022-12-11T09:23:53.435Z,99099.72
2022-12-11T09:26:21.488Z,99095.41
2022-12-11T09:28:53.108Z,99095.88
2022-12-11T09:31:24.162Z,99104.34
2022-12-11T09:33:54.405Z,99105.19
2022-12-11T09:36:22.879Z,99114.84
2022-12-11T09:38:50.817Z,99115.09
2022-12-11T09:41:21.512Z,99111.19
2022-12-11T09:43:57.994Z,99111.56
2022-12-11T09:46:30.582Z,99101.87
2022-12-11T09:49:04.705Z,99109.19
2022-12-11T09:51:51.168Z,99094.91
2022-12-11T09:54:18.879Z,99101.19
2022-12-11T09:57:09.065Z,99085.72
2022-12-11T09:59:52.061Z,99081.69
2022-12-11T10:02:28.496Z,99089.03
2022-12-11T10:05:17.746Z,99085.38
2022-12-11T10:07:52.886Z,99092.88
2022-12-11T10:10:29.575Z,99094.34
2022-12-11T10:13:21.680Z,99100.13
2022-12-11T10:16:14.592Z,99102.47
2022-12-11T10:18:42.464Z,99106.84
2022-12-11T10:21:12.894Z,99113.88
2022-12-11T10:23:54.173Z,99115.13
2022-12-11T10:26:23.284Z,99107.41
2022-12-11T10:28:51.024Z,99110.66
2022-12-11T10:31:22.623Z,99121.03
2022-12-11T10:34:05.151Z,99114.16
2022-12-11T10:36:37.114Z,99111.69
2022-12-11T10:39:14.055Z,99100.88
2022-12-11T10:41:44.925Z,99094.41
2022-12-11T10:44:20.000Z,99099.34
2022-12-11T10:46:49.671Z,99104.03
2022-12-11T10:49:27.577Z,99109.00
2022-12-11T10:51:56.090Z,99091.31
2022-12-11T10:54:32.096Z,99107.81
2022-12-11T10:57:01.580Z,99115.22
2022-12-11T10:59:50.325Z,99103.50
2022-12-11T11:02:31.817Z,99104.16
2022-12-11T11:05:01.032Z,99098.16
2022-12-11T11:07:30.837Z,99103.81
2022-12-11T11:10:11.455Z,99105.09
2022-12-11T11:12:48.688Z,99102.41
2022-12-11T11:15:25.929Z,99108.72
2022-12-11T11:17:56.437Z,99110.66
2022-12-11T11:20:31.569Z,99105.25
2022-12-11T11:23:02.829Z,99109.00
2022-12-11T11:25:32.820Z,99115.25
2022-12-11T11:28:16.092Z,99112.41
2022-12-11T11:31:01.467Z,99099.59
2022-12-11T11:33:31.519Z,99127.84
2022-12-11T11:36:01.612Z,99130.44
2022-12-11T11:38:44.766Z,99131.59
2022-12-11T11:41:36.180Z,99125.75
2022-12-11T11:44:12.496Z,99133.13
2022-12-11T11:46:49.186Z,99135.75
2022-12-11T11:49:24.460Z,99133.75
2022-12-11T11:51:59.116Z,99136.12
2022-12-11T11:55:10.956Z,99144.09
2022-12-11T11:58:00.824Z,99122.91
2022-12-11T12:00:33.661Z,99140.88
2022-12-11T12:03:09.489Z,99143.75
2022-12-11T12:06:15.636Z,99144.62
2022-12-11T12:09:21.191Z,99143.56
2022-12-11T12:11:54.752Z,99143.19
2022-12-11T12:14:51.818Z,99146.03
2022-12-11T12:17:23.736Z,99145.44
2022-12-11T12:20:04.348Z,99142.59
2022-12-11T12:22:32.071Z,99150.16
2022-12-11T12:25:25.939Z,99139.41
2022-12-11T12:27:56.154Z,99136.56
2022-12-11T12:30:24.364Z,99143.66
2022-12-11T12:33:14.016Z,99136.97
2022-12-11T12:36:09.803Z,99148.03
2022-12-11T12:38:54.902Z,99153.81
2022-12-11T12:41:27.486Z,99162.41
2022-12-11T12:44:04.154Z,99169.22
2022-12-11T12:46:58.331Z,99181.75
2022-12-11T12:49:36.976Z,99173.72
2022-12-11T12:52:10.357Z,99183.16
2022-12-11T12:54:39.081Z,99190.59
2022-12-11T12:57:07.813Z,99194.22
2022-12-11T12:59:35.943Z,99196.59
2022-12-11T13:02:05.139Z,99197.22
2022-12-11T13:04:58.455Z,99191.28
2022-12-11T13:07:30.296Z,99203.94
2022-12-11T13:10:06.198Z,99207.00
2022-12-11T13:12:43.543Z,99210.03
2022-12-11T13:15:36.420Z,99212.78
2022-12-11T13:18:07.573Z,99199.56
2022-12-11T13:20:47.867Z,99198.84
2022-12-11T13:23:28.802Z,99202.97
2022-12-11T13:26:02.411Z,99208.37
2022-12-11T13:28:38.984Z,99201.81
2022-12-11T13:31:15.652Z,99204.41
2022-12-11T13:33:47.185Z,99203.41
2022-12-11T13:36:24.918Z,99200.75
2022-12-11T13:38:56.940Z,99202.94
2022-12-11T13:41:25.174Z,99214.31
2022-12-11T13:43:53.864Z,99207.56
2022-12-11T13:46:27.023Z,99215.13
2022-12-11T13:49:00.875Z,99225.25
2022-12-11T13:51:31.900Z,99233.66
2022-12-11T13:54:05.713Z,99241.56
2022-12-11T13:56:34.319Z,99239.91
2022-12-11T13:59:02.097Z,99249.00
2022-12-11T14:01:33.488Z,99250.28
2022-12-11T14:04:19.212Z,99253.25
2022-12-11T14:06:46.813Z,99257.47
2022-12-11T14:09:23.719Z,99249.22
2022-12-11T14:11:56.785Z,99236.38
2022-12-11T14:14:39.501Z,99248.63
2022-12-11T14:17:14.144Z,99251.47
2022-12-11T14:19:47.948Z,99252.28
2022-12-11T14:22:33.677Z,99260.22
2022-12-11T14:25:16.822Z,99261.50
2022-12-11T14:27:57.390Z,99262.34
2022-12-11T14:30:32.463Z,99280.69
2022-12-11T14:33:03.041Z,99280.66
2022-12-11T14:35:39.420Z,99281.03
2022-12-11T14:38:35.511Z,99284.25
2022-12-11T14:41:13.168Z,99288.59
2022-12-11T14:43:49.102Z,99297.44
2022-12-11T14:46:49.785Z,99298.34
2022-12-11T14:49:29.264Z,99301.78
2022-12-11T14:51:58.565Z,99306.59
2022-12-11T14:54:40.645Z,99311.00
2022-12-11T14:57:14.764Z,99313.47
2022-12-11T14:59:47.241Z,99309.78
2022-12-11T15:02:29.650Z,99307.41
2022-12-11T15:05:17.864Z,99308.25
2022-12-11T15:08:04.216Z,99307.53
2022-12-11T15:10:36.818Z,99305.75
2022-12-11T15:13:06.458Z,99307.75
2022-12-11T15:15:43.878Z,99304.38
2022-12-11T15:18:23.977Z,99303.50
2022-12-11T15:20:54.902Z,99314.00
2022-12-11T15:23:22.758Z,99317.41
2022-12-11T15:25:53.895Z,99322.37
2022-12-11T15:28:36.469Z,99318.22
2022-12-11T15:31:08.287Z,99321.66
2022-12-11T15:33:47.805Z,99317.31
2022-12-11T15:36:22.079Z,99322.00
2022-12-11T15:38:49.555Z,99322.00
2022-12-11T15:41:24.633Z,99318.72
2022-12-11T15:43:58.609Z,99314.75
2022-12-11T15:46:27.284Z,99323.53
2022-12-11T15:48:57.584Z,99326.03
2022-12-11T15:51:27.429Z,99324.50
2022-12-11T15:53:55.340Z,99327.50
2022-12-11T15:56:22.779Z,99337.19
2022-12-11T15:58:50.351Z,99336.72
2022-12-11T16:01:18.624Z,99350.22
2022-12-11T16:03:46.516Z,99353.69
2022-12-11T16:06:14.140Z,99346.31
2022-12-11T16:08:41.615Z,99345.03
2022-12-11T16:11:12.909Z,99349.34
2022-12-11T16:13:40.364Z,99361.75
2022-12-11T16:16:07.972Z,99346.75
2022-12-11T16:18:35.756Z,99360.78
2022-12-11T16:21:06.322Z,99354.94
2022-12-11T16:23:33.873Z,99364.41
2022-12-11T16:26:06.944Z,99365.38
2022-12-11T16:28:34.356Z,99363.22
2022-12-11T16:31:02.482Z,99365.12
2022-12-11T16:33:30.216Z,99354.00
2022-12-11T16:35:58.009Z,99348.00
2022-12-11T16:38:25.749Z,99345.03
2022-12-11T16:41:01.130Z,99353.31
2022-12-11T16:43:28.886Z,99358.47
2022-12-11T16:45:56.665Z,99352.91
2022-12-11T16:48:24.306Z,99354.31
2022-12-11T16:50:55.955Z,99345.31
2022-12-11T16:53:24.612Z,99336.75
2022-12-11T16:55:52.536Z,99346.78
2022-12-11T16:58:20.281Z,99348.34
2022-12-11T17:00:48.294Z,99354.72
2022-12-11T17:03:16.544Z,99349.75
2022-12-11T17:05:44.116Z,99355.47
2022-12-11T17:08:13.019Z,99366.63
2022-12-11T17:10:42.169Z,99363.09
2022-12-11T17:13:09.634Z,99367.28
2022-12-11T17:15:41.586Z,99350.75
2022-12-11T17:18:13.201Z,99366.34
2022-12-11T17:20:41.841Z,99366.34
2022-12-11T17:23:10.866Z,99371.44
2022-12-11T17:25:43.183Z,99366.53
2022-12-11T17:28:13.531Z,99371.28
2022-12-11T17:30:43.410Z,99374.03
2022-12-11T17:33:12.044Z,99371.62
2022-12-11T17:35:39.667Z,99380.12
2022-12-11T17:38:07.399Z,99382.84
2022-12-11T17:40:40.405Z,99380.19
2022-12-11T17:43:09.399Z,99367.97
2022-12-11T17:45:43.125Z,99382.44
2022-12-11T17:48:11.856Z,99388.78
2022-12-11T17:50:44.754Z,99398.53
2022-12-11T17:53:15.963Z,99392.84
2022-12-11T17:55:45.802Z,99395.25
2022-12-11T17:58:22.014Z,99394.88
2022-12-11T18:00:53.205Z,99398.59
2022-12-11T18:03:22.078Z,99399.03
2022-12-11T18:05:53.849Z,99405.59
2022-12-11T18:08:28.381Z,99400.72
2022-12-11T18:10:56.776Z,99410.22
2022-12-11T18:13:25.154Z,99411.81
2022-12-11T18:16:25.912Z,99405.19
2022-12-11T18:18:54.309Z,99418.72
2022-12-11T18:21:29.386Z,99418.69
2022-12-11T18:23:58.024Z,99415.34
2022-12-11T18:26:26.070Z,99426.97
2022-12-11T18:28:54.317Z,99434.81
2022-12-11T18:31:23.159Z,99433.25
2022-12-11T18:33:51.153Z,99425.31
2022-12-11T18:36:19.646Z,99437.34
2022-12-11T18:38:48.393Z,99441.47
2022-12-11T18:41:18.248Z,99445.66
2022-12-11T18:43:46.008Z,99443.91
2022-12-11T18:46:17.100Z,99451.41
2022-12-11T18:48:45.884Z,99447.84
2022-12-11T18:51:17.437Z,99451.97
2022-12-11T18:53:45.477Z,99463.94
2022-12-11T18:56:16.820Z,99465.06
2022-12-11T18:58:45.706Z,99469.63
2022-12-11T19:01:19.713Z,99462.59
2022-12-11T19:03:48.444Z,99472.53
2022-12-11T19:06:20.952Z,99473.06
2022-12-11T19:08:48.725Z,99467.16
2022-12-11T19:11:19.469Z,99469.53
2022-12-11T19:13:47.632Z,99466.00
2022-12-11T19:16:24.097Z,99461.25
2022-12-11T19:18:52.588Z,99472.63
2022-12-11T19:21:20.341Z,99476.47
2022-12-11T19:23:48.163Z,99478.03
2022-12-11T19:26:19.645Z,99476.38
2022-12-11T19:28:49.713Z,99471.19
2022-12-11T19:31:20.914Z,99466.41
2022-12-11T19:33:49.419Z,99485.19
2022-12-11T19:36:19.914Z,99483.00
2022-12-11T19:38:47.844Z,99477.41
2022-12-11T19:41:17.976Z,99481.13
2022-12-11T19:43:45.852Z,99482.28
2022-12-11T19:46:14.622Z,99487.25
2022-12-11T19:48:43.188Z,99488.28
2022-12-11T19:51:15.482Z,99497.41
2022-12-11T19:53:45.036Z,99494.38
2022-12-11T19:56:13.785Z,99495.75
2022-12-11T19:58:42.161Z,99489.22
2022-12-11T20:01:10.557Z,99495.22
2022-12-11T20:03:38.871Z,99492.22
2022-12-11T20:06:08.360Z,99497.06
2022-12-11T20:08:45.847Z,99493.34
2022-12-11T20:11:18.770Z,99494.28
2022-12-11T20:13:47.618Z,99493.84
2022-12-11T20:16:17.563Z,99489.94
2022-12-11T20:18:45.568Z,99491.59
2022-12-11T20:21:16.040Z,99491.37
2022-12-11T20:23:45.031Z,99491.09
2022-12-11T20:26:17.339Z,99495.69
2022-12-11T20:28:50.149Z,99500.59
2022-12-11T20:31:25.269Z,99504.22
2022-12-11T20:33:56.040Z,99510.66
2022-12-11T20:36:24.833Z,99513.56
2022-12-11T20:38:52.967Z,99515.31
2022-12-11T20:41:23.799Z,99511.38
2022-12-11T20:43:55.333Z,99514.59
2022-12-11T20:46:27.241Z,99518.72
2022-12-11T20:48:58.879Z,99515.09
2022-12-11T20:51:28.122Z,99509.44
2022-12-11T20:53:59.037Z,99509.31
2022-12-11T20:56:29.887Z,99516.66
2022-12-11T20:59:00.111Z,99516.28
2022-12-11T21:01:32.224Z,99515.53
2022-12-11T21:04:00.216Z,99521.66
2022-12-11T21:06:31.562Z,99519.66
2022-12-11T21:09:01.471Z,99521.22
2022-12-11T21:11:29.472Z,99524.12
2022-12-11T21:13:57.173Z,99522.78
2022-12-11T21:16:25.489Z,99513.03
2022-12-11T21:18:56.276Z,99524.97
2022-12-11T21:21:25.247Z,99522.78
2022-12-11T21:23:53.349Z,99521.94
2022-12-11T21:26:21.060Z,99528.91
2022-12-11T21:28:48.769Z,99536.87
2022-12-11T21:31:18.861Z,99539.38
2022-12-11T21:33:47.730Z,99549.19
2022-12-11T21:36:15.808Z,99529.00
2022-12-11T21:38:45.280Z,99539.56
2022-12-11T21:41:24.326Z,99539.78
2022-12-11T21:46:41.983Z,99559.91
2022-12-11T21:49:10.131Z,99555.97
2022-12-11T21:51:44.050Z,99548.16
2022-12-11T21:54:17.785Z,99552.19
2022-12-11T21:56:46.147Z,99558.19
2022-12-11T21:59:13.822Z,99561.81
2022-12-11T22:01:45.818Z,99571.03
2022-12-11T22:04:14.877Z,99571.16
2022-12-11T22:06:43.616Z,99567.31
2022-12-11T22:09:12.581Z,99578.19
2022-12-11T22:11:41.688Z,99574.47
2022-12-11T22:14:12.965Z,99587.72
2022-12-11T22:16:41.014Z,99572.91
2022-12-11T22:19:08.579Z,99571.44
2022-12-11T22:21:36.280Z,99581.91
2022-12-11T22:24:04.236Z,99580.22
2022-12-11T22:26:31.719Z,99576.16
2022-12-11T22:28:59.284Z,99574.53
2022-12-11T22:31:27.906Z,99576.84
2022-12-11T22:33:55.430Z,99561.59
2022-12-11T22:36:25.253Z,99579.25
2022-12-11T22:38:53.377Z,99575.41
2022-12-11T22:41:25.284Z,99574.25
2022-12-11T22:43:53.941Z,99563.12
2022-12-11T22:46:24.224Z,99552.03
2022-12-11T22:48:52.739Z,99561.84
2022-12-11T22:51:21.300Z,99567.59
2022-12-11T22:53:48.924Z,99567.31
2022-12-11T22:56:16.886Z,99571.25
2022-12-11T22:58:45.015Z,99576.78
2022-12-11T23:01:20.012Z,99580.75
2022-12-11T23:03:48.668Z,99580.84
2022-12-11T23:06:17.749Z,99584.75
2022-12-11T23:08:45.523Z,99588.06
2022-12-11T23:11:20.163Z,99591.19
2022-12-11T23:13:47.833Z,99591.22
2022-12-11T23:16:15.948Z,99592.03
2022-12-11T23:18:43.678Z,99589.91
2022-12-11T23:21:11.782Z,99596.66
2022-12-11T23:23:39.812Z,99594.81
2022-12-11T23:26:10.288Z,99599.81
2022-12-11T23:28:38.499Z,99595.03
2022-12-11T23:31:07.088Z,99606.31
2022-12-11T23:33:34.555Z,99614.06
2022-12-11T23:36:02.421Z,99603.91
2022-12-11T23:38:30.634Z,99611.09
2022-12-11T23:41:02.288Z,99602.53
2022-12-11T23:43:32.017Z,99608.31
2022-12-11T23:45:59.438Z,99609.53
2022-12-11T23:48:27.171Z,99611.56
2022-12-11T23:50:59.831Z,99602.97
2022-12-11T23:53:28.373Z,99614.97
2022-12-11T23:55:56.472Z,99617.19
2022-12-11T23:58:24.220Z,99619.78
